createdAt,value
2023-08-08T00:01:12.757Z,99642.22
2023-08-08T00:03:47.908Z,99640.06
2023-08-08T00:06:18.311Z,99640.88
2023-08-08T00:08:48.404Z,99654.66
2023-08-08T00:11:18.788Z,99653.69
2023-08-08T00:13:49.831Z,99654.66
2023-08-08T00:16:20.283Z,99639.06
2023-08-08T00:18:54.844Z,99649.66
2023-08-08T00:21:25.274Z,99655.97
2023-08-08T00:23:56.930Z,99666.63
2023-08-08T00:26:31.800Z,99666.09
2023-08-08T00:29:03.307Z,99671.44
2023-08-08T00:31:34.919Z,99678.88
2023-08-08T00:34:07.967Z,99676.22
2023-08-08T00:36:38.237Z,99670.28
2023-08-08T00:39:09.267Z,99676.44
2023-08-08T00:41:39.566Z,99679.88
2023-08-08T00:44:10.189Z,99678.25
2023-08-08T00:46:40.580Z,99678.25
2023-08-08T00:49:13.901Z,99675.28
2023-08-08T00:51:47.474Z,99678.75
2023-08-08T00:54:22.639Z,99671.28
2023-08-08T00:56:53.001Z,99669.63
2023-08-08T00:59:23.710Z,99672.13
2023-08-08T01:01:59.999Z,99676.63
2023-08-08T01:04:33.664Z,99679.59
2023-08-08T01:07:11.738Z,99673.97
2023-08-08T01:09:57.185Z,99674.47
2023-08-08T01:12:29.609Z,99678.63
2023-08-08T01:15:00.939Z,99675.31
2023-08-08T01:17:31.790Z,99680.97
2023-08-08T01:20:05.582Z,99673.47
2023-08-08T01:22:41.750Z,99684.63
2023-08-08T01:25:14.934Z,99681.47
2023-08-08T01:27:47.777Z,99686.78
2023-08-08T01:30:19.489Z,99696.47
2023-08-08T01:32:52.510Z,99689.97
2023-08-08T01:35:23.063Z,99695.97
2023-08-08T01:37:58.055Z,99696.16
2023-08-08T01:40:33.118Z,99693.00
2023-08-08T01:43:03.532Z,99702.31
2023-08-08T01:45:37.993Z,99707.47
2023-08-08T01:48:11.687Z,99701.97
2023-08-08T01:50:45.339Z,99692.31
2023-08-08T01:53:15.966Z,99701.78
2023-08-08T01:55:48.827Z,99698.13
2023-08-08T01:58:19.378Z,99702.31
2023-08-08T02:00:48.174Z,99703.63
2023-08-08T02:03:21.641Z,99702.63
2023-08-08T02:05:52.408Z,99699.78
2023-08-08T02:08:22.681Z,99705.78
2023-08-08T02:10:55.429Z,99708.63
2023-08-08T02:13:25.683Z,99706.13
2023-08-08T02:15:58.453Z,99708.28
2023-08-08T02:18:28.518Z,99704.63
2023-08-08T02:20:58.782Z,99705.78
2023-08-08T02:23:28.974Z,99704.31
2023-08-08T02:26:01.563Z,99711.63
2023-08-08T02:28:31.937Z,99717.63
2023-08-08T02:31:04.039Z,99717.28
2023-08-08T02:33:34.551Z,99710.13
2023-08-08T02:36:04.922Z,99711.97
2023-08-08T02:38:34.883Z,99715.78
2023-08-08T02:41:10.805Z,99716.09
2023-08-08T02:43:44.132Z,99711.97
2023-08-08T02:46:14.528Z,99719.44
2023-08-08T02:48:44.503Z,99723.59
2023-08-08T02:51:14.817Z,99718.59
2023-08-08T02:53:44.769Z,99723.91
2023-08-08T02:56:17.697Z,99722.91
2023-08-08T02:58:48.002Z,99723.91
2023-08-08T03:01:18.965Z,99732.72
2023-08-08T03:03:50.429Z,99731.88
2023-08-08T03:06:20.900Z,99731.22
2023-08-08T03:08:51.247Z,99733.22
2023-08-08T03:11:24.109Z,99734.22
2023-08-08T03:13:54.524Z,99730.69
2023-08-08T03:16:24.884Z,99732.19
2023-08-08T03:18:55.265Z,99744.16
2023-08-08T03:21:25.664Z,99741.84
2023-08-08T03:23:56.222Z,99749.47
2023-08-08T03:26:31.342Z,99744.50
2023-08-08T03:29:01.596Z,99748.31
2023-08-08T03:31:32.298Z,99748.94
2023-08-08T03:34:02.618Z,99751.13
2023-08-08T03:36:33.021Z,99744.13
2023-08-08T03:39:05.466Z,99742.13
2023-08-08T03:41:40.170Z,99742.44
2023-08-08T03:44:11.157Z,99765.84
2023-08-08T03:46:41.448Z,99762.50
2023-08-08T03:49:11.415Z,99758.56
2023-08-08T03:51:41.701Z,99761.72
2023-08-08T03:54:13.473Z,99767.25
2023-08-08T03:56:46.403Z,99769.22
2023-08-08T03:59:16.712Z,99772.56
2023-08-08T04:01:46.666Z,99780.06
2023-08-08T04:04:19.782Z,99770.06
2023-08-08T04:06:53.527Z,99769.78
2023-08-08T04:09:23.832Z,99770.50
2023-08-08T04:11:56.527Z,99779.31
2023-08-08T04:14:26.841Z,99782.13
2023-08-08T04:16:56.874Z,99786.66
2023-08-08T04:19:27.377Z,99797.34
2023-08-08T04:21:57.989Z,99795.00
2023-08-08T04:24:29.316Z,99797.50
2023-08-08T04:27:02.233Z,99811.19
2023-08-08T04:29:32.577Z,99802.53
2023-08-08T04:32:03.001Z,99811.53
2023-08-08T04:34:33.323Z,99810.72
2023-08-08T04:37:03.285Z,99808.88
2023-08-08T04:39:33.611Z,99818.38
2023-08-08T04:42:06.959Z,99828.50
2023-08-08T04:44:37.291Z,99826.63
2023-08-08T04:47:07.570Z,99830.50
2023-08-08T04:49:37.786Z,99838.47
2023-08-08T04:52:08.417Z,99834.25
2023-08-08T04:54:38.627Z,99837.41
2023-08-08T04:57:12.771Z,99853.06
2023-08-08T04:59:43.992Z,99849.47
2023-08-08T05:02:14.297Z,99853.81
2023-08-08T05:04:46.561Z,99860.59
2023-08-08T05:07:16.909Z,99859.19
2023-08-08T05:09:47.297Z,99866.41
2023-08-08T05:12:20.138Z,99875.97
2023-08-08T05:14:50.484Z,99887.09
2023-08-08T05:17:20.879Z,99876.78
2023-08-08T05:19:52.340Z,99874.78
2023-08-08T05:22:22.597Z,99878.44
2023-08-08T05:24:52.607Z,99889.00
2023-08-08T05:27:25.454Z,99893.88
2023-08-08T05:29:55.702Z,99897.16
2023-08-08T05:32:26.105Z,99898.09
2023-08-08T05:34:56.790Z,99897.63
2023-08-08T05:37:27.179Z,99909.31
2023-08-08T05:39:57.959Z,99907.06
2023-08-08T05:42:35.020Z,99908.22
2023-08-08T05:45:06.079Z,99909.28
2023-08-08T05:47:37.029Z,99901.13
2023-08-08T05:50:08.277Z,99913.91
2023-08-08T05:52:38.565Z,99920.19
2023-08-08T05:55:10.570Z,99911.06
2023-08-08T05:57:43.511Z,99915.97
2023-08-08T06:00:15.436Z,99918.91
2023-08-08T06:02:45.737Z,99917.38
2023-08-08T06:05:16.134Z,99920.63
2023-08-08T06:07:46.552Z,99917.53
2023-08-08T06:10:16.861Z,99918.56
2023-08-08T06:12:49.696Z,99907.78
2023-08-08T06:15:20.037Z,99913.78
2023-08-08T06:17:50.311Z,99917.41
2023-08-08T06:20:20.998Z,99924.13
2023-08-08T06:22:51.322Z,99921.22
2023-08-08T06:25:27.189Z,99913.81
2023-08-08T06:28:03.246Z,99917.91
2023-08-08T06:30:33.608Z,99919.28
2023-08-08T06:33:04.718Z,99923.03
2023-08-08T06:35:35.108Z,99923.28
2023-08-08T06:38:05.527Z,99932.66
2023-08-08T06:40:41.884Z,99923.09
2023-08-08T06:43:14.791Z,99927.38
2023-08-08T06:45:45.154Z,99922.19
2023-08-08T06:48:15.520Z,99930.16
2023-08-08T06:50:45.786Z,99926.44
2023-08-08T06:53:16.193Z,99927.84
2023-08-08T06:55:43.878Z,99935.78
2023-08-08T06:58:16.842Z,99926.19
2023-08-08T07:00:49.632Z,99928.81
2023-08-08T07:03:20.096Z,99933.63
2023-08-08T07:05:53.299Z,99935.84
2023-08-08T07:08:23.922Z,99929.59
2023-08-08T07:10:55.408Z,99939.19
2023-08-08T07:13:29.890Z,99936.22
2023-08-08T07:16:00.140Z,99939.13
2023-08-08T07:18:30.836Z,99939.56
2023-08-08T07:21:01.106Z,99945.06
2023-08-08T07:23:31.410Z,99942.47
2023-08-08T07:26:01.674Z,99950.28
2023-08-08T07:28:34.682Z,99949.59
2023-08-08T07:31:05.102Z,99949.50
2023-08-08T07:33:35.531Z,99949.47
2023-08-08T07:36:05.850Z,99947.44
2023-08-08T07:38:36.478Z,99937.97
2023-08-08T07:41:09.274Z,99944.50
2023-08-08T07:43:42.241Z,99944.59
2023-08-08T07:46:13.134Z,99939.91
2023-08-08T07:48:43.477Z,99933.00
2023-08-08T07:51:13.742Z,99939.16
2023-08-08T07:53:47.278Z,99947.03
2023-08-08T07:56:20.711Z,99946.13
2023-08-08T07:58:54.924Z,99942.41
2023-08-08T08:01:26.638Z,99941.66
2023-08-08T08:03:57.098Z,99954.03
2023-08-08T08:06:27.430Z,99942.47
2023-08-08T08:08:57.727Z,99952.50
2023-08-08T08:11:28.118Z,99948.53
2023-08-08T08:14:00.998Z,99945.13
2023-08-08T08:16:31.419Z,99943.09
2023-08-08T08:19:06.666Z,99945.88
2023-08-08T08:21:36.917Z,99941.00
2023-08-08T08:24:10.305Z,99938.72
2023-08-08T08:26:40.545Z,99937.31
2023-08-08T08:29:16.368Z,99934.00
2023-08-08T08:31:46.625Z,99933.94
2023-08-08T08:34:16.834Z,99934.28
2023-08-08T08:36:50.005Z,99932.81
2023-08-08T08:39:20.874Z,99938.09
2023-08-08T08:41:53.471Z,99938.91
2023-08-08T08:44:27.117Z,99929.78
2023-08-08T08:46:59.856Z,99934.69
2023-08-08T08:49:32.679Z,99944.22
2023-08-08T08:52:06.359Z,99937.16
2023-08-08T08:54:37.419Z,99944.22
2023-08-08T08:57:08.368Z,99944.75
2023-08-08T08:59:41.285Z,99936.22
2023-08-08T09:02:13.091Z,99944.94
2023-08-08T09:04:44.439Z,99942.09
2023-08-08T09:07:16.609Z,99942.53
2023-08-08T09:09:47.782Z,99941.41
2023-08-08T09:12:19.849Z,99937.84
2023-08-08T09:14:59.389Z,99933.75
2023-08-08T09:17:42.088Z,99941.72
2023-08-08T09:20:19.059Z,99942.78
2023-08-08T09:22:49.730Z,99941.97
2023-08-08T09:25:20.035Z,99952.44
2023-08-08T09:27:52.517Z,99943.03
2023-08-08T09:30:25.939Z,99952.88
2023-08-08T09:32:56.350Z,99945.78
2023-08-08T09:35:27.745Z,99949.84
2023-08-08T09:37:58.779Z,99951.00
2023-08-08T09:40:29.160Z,99957.47
2023-08-08T09:43:01.550Z,99944.44
2023-08-08T09:45:44.217Z,99963.19
2023-08-08T09:48:14.731Z,99953.44
2023-08-08T09:50:46.539Z,99954.31
2023-08-08T09:53:17.523Z,99946.44
2023-08-08T09:55:48.457Z,99951.38
2023-08-08T09:58:23.266Z,99948.63
2023-08-08T10:00:56.521Z,99951.91
2023-08-08T10:03:29.899Z,99956.41
2023-08-08T10:06:00.483Z,99953.19
2023-08-08T10:08:30.891Z,99948.47
2023-08-08T10:11:01.322Z,99956.47
2023-08-08T10:13:31.702Z,99946.81
2023-08-08T10:16:11.786Z,99953.47
2023-08-08T10:18:42.317Z,99943.94
2023-08-08T10:21:12.877Z,99939.78
2023-08-08T10:23:47.373Z,99952.09
2023-08-08T10:26:23.872Z,99936.91
2023-08-08T10:29:00.298Z,99936.91
2023-08-08T10:31:37.915Z,99942.09
2023-08-08T10:34:11.067Z,99937.22
2023-08-08T10:36:55.312Z,99935.69
2023-08-08T10:39:25.826Z,99936.03
2023-08-08T10:41:56.116Z,99942.31
2023-08-08T10:44:27.756Z,99944.78
2023-08-08T10:47:04.604Z,99937.22
2023-08-08T10:49:35.996Z,99925.56
2023-08-08T10:52:07.814Z,99932.53
2023-08-08T10:54:44.056Z,99922.88
2023-08-08T10:57:20.744Z,99924.94
2023-08-08T10:59:51.373Z,99922.31
2023-08-08T11:02:27.825Z,99930.84
2023-08-08T11:05:00.389Z,99924.56
2023-08-08T11:07:32.047Z,99929.63
2023-08-08T11:10:02.426Z,99928.38
2023-08-08T11:12:32.767Z,99916.72
2023-08-08T11:15:03.900Z,99931.31
2023-08-08T11:17:40.689Z,99925.94
2023-08-08T11:20:11.942Z,99929.50
2023-08-08T11:22:42.289Z,99929.09
2023-08-08T11:25:13.028Z,99932.25
2023-08-08T11:27:44.617Z,99935.31
2023-08-08T11:30:16.015Z,99938.09
2023-08-08T11:33:15.452Z,99937.34
2023-08-08T11:35:41.702Z,99938.00
2023-08-08T11:38:12.041Z,99937.09
2023-08-08T11:40:42.431Z,99936.69
2023-08-08T11:43:13.140Z,99942.66
2023-08-08T11:45:43.702Z,99933.78
2023-08-08T11:48:17.097Z,99933.72
2023-08-08T11:50:48.421Z,99934.16
2023-08-08T11:53:18.721Z,99925.66
2023-08-08T11:55:54.946Z,99928.41
2023-08-08T11:58:28.122Z,99926.13
2023-08-08T12:00:58.584Z,99925.97
2023-08-08T12:03:32.356Z,99927.06
2023-08-08T12:06:05.770Z,99922.34
2023-08-08T12:08:37.140Z,99931.06
2023-08-08T12:11:09.538Z,99931.50
2023-08-08T12:13:43.719Z,99927.75
2023-08-08T12:16:17.507Z,99927.28
2023-08-08T12:18:53.111Z,99919.59
2023-08-08T12:21:28.442Z,99929.25
2023-08-08T12:23:58.957Z,99926.44
2023-08-08T12:26:29.272Z,99935.91
2023-08-08T12:28:59.627Z,99942.25
2023-08-08T12:31:29.989Z,99929.97
2023-08-08T12:34:04.060Z,99926.47
2023-08-08T12:36:34.475Z,99917.50
2023-08-08T12:39:04.837Z,99921.03
2023-08-08T12:41:35.140Z,99923.25
2023-08-08T12:44:05.477Z,99931.03
2023-08-08T12:46:35.875Z,99924.09
2023-08-08T12:49:09.633Z,99918.97
2023-08-08T12:51:39.943Z,99924.88
2023-08-08T12:54:10.587Z,99917.09
2023-08-08T12:56:40.875Z,99929.84
2023-08-08T12:59:11.216Z,99921.88
2023-08-08T13:01:41.526Z,99920.84
2023-08-08T13:06:48.305Z,99920.97
2023-08-08T13:09:18.980Z,99921.66
2023-08-08T13:11:49.349Z,99925.53
2023-08-08T13:14:22.788Z,99916.25
2023-08-08T13:16:54.467Z,99924.94
2023-08-08T13:19:28.020Z,99923.22
2023-08-08T13:21:59.320Z,99912.34
2023-08-08T13:24:30.062Z,99919.59
2023-08-08T13:27:00.398Z,99913.84
2023-08-08T13:29:30.672Z,99913.25
2023-08-08T13:32:01.249Z,99915.06
2023-08-08T13:34:34.339Z,99917.66
2023-08-08T13:37:04.846Z,99917.38
2023-08-08T13:39:35.231Z,99914.56
2023-08-08T13:42:05.795Z,99913.06
2023-08-08T13:44:36.085Z,99919.91
2023-08-08T13:47:09.314Z,99920.66
2023-08-08T13:49:42.189Z,99910.94
2023-08-08T13:52:13.163Z,99914.69
2023-08-08T13:54:43.553Z,99914.91
2023-08-08T13:57:17.472Z,99903.19
2023-08-08T13:59:47.848Z,99915.16
2023-08-08T14:02:21.059Z,99911.13
2023-08-08T14:04:54.015Z,99913.56
2023-08-08T14:07:25.326Z,99921.09
2023-08-08T14:09:58.155Z,99923.63
2023-08-08T14:12:28.629Z,99916.63
2023-08-08T14:14:58.916Z,99920.25
2023-08-08T14:17:29.301Z,99921.84
2023-08-08T14:20:02.450Z,99936.16
2023-08-08T14:22:32.857Z,99926.09
2023-08-08T14:25:03.465Z,99927.41
2023-08-08T14:27:33.996Z,99939.47
2023-08-08T14:30:05.202Z,99945.75
2023-08-08T14:32:40.688Z,99949.03
2023-08-08T14:35:19.437Z,99946.53
2023-08-08T14:37:52.646Z,99944.34
2023-08-08T14:40:23.114Z,99945.72
2023-08-08T14:42:56.186Z,99944.47
2023-08-08T14:45:29.384Z,99943.59
2023-08-08T14:48:00.012Z,99950.53
2023-08-08T14:50:33.247Z,99945.81
2023-08-08T14:53:03.526Z,99950.38
2023-08-08T14:55:34.009Z,99945.59
2023-08-08T14:58:04.340Z,99949.91
2023-08-08T15:00:34.760Z,99950.75
2023-08-08T15:03:05.308Z,99953.84
2023-08-08T15:05:46.748Z,99954.94
2023-08-08T15:08:17.768Z,99944.38
2023-08-08T15:10:48.160Z,99951.63
2023-08-08T15:13:18.421Z,99950.94
2023-08-08T15:15:48.868Z,99948.09
2023-08-08T15:18:20.548Z,99948.13
2023-08-08T15:20:53.548Z,99946.03
2023-08-08T15:23:25.734Z,99942.91
2023-08-08T15:25:56.412Z,99941.25
2023-08-08T15:28:26.841Z,99936.69
2023-08-08T15:30:59.677Z,99942.03
2023-08-08T15:33:32.946Z,99936.22
2023-08-08T15:36:06.048Z,99936.00
2023-08-08T15:38:36.401Z,99932.88
2023-08-08T15:41:09.654Z,99934.56
2023-08-08T15:43:42.086Z,99941.84
2023-08-08T15:46:12.392Z,99939.19
2023-08-08T15:48:43.381Z,99942.31
2023-08-08T15:51:16.295Z,99937.53
2023-08-08T15:53:46.653Z,99933.16
2023-08-08T15:56:17.051Z,99937.97
2023-08-08T15:58:47.432Z,99942.31
2023-08-08T16:01:17.804Z,99946.44
2023-08-08T16:03:50.483Z,99945.38
2023-08-08T16:06:24.621Z,99938.13
2023-08-08T16:08:56.055Z,99944.97
2023-08-08T16:11:26.385Z,99936.88
2023-08-08T16:13:56.636Z,99940.59
2023-08-08T16:16:26.934Z,99936.47
2023-08-08T16:18:57.259Z,99939.56
2023-08-08T16:21:30.155Z,99941.63
2023-08-08T16:24:00.560Z,99941.00
2023-08-08T16:26:30.894Z,99934.34
2023-08-08T16:29:01.412Z,99943.06
2023-08-08T16:31:33.190Z,99937.25
2023-08-08T16:34:04.369Z,99940.13
2023-08-08T16:36:38.670Z,99944.28
2023-08-08T16:39:18.322Z,99950.03
2023-08-08T16:41:49.392Z,99949.78
2023-08-08T16:44:21.805Z,99957.16
2023-08-08T16:46:54.557Z,99948.25
2023-08-08T16:49:24.977Z,99950.44
2023-08-08T16:51:57.866Z,99944.88
2023-08-08T16:54:28.250Z,99948.72
2023-08-08T16:56:58.580Z,99946.00
2023-08-08T16:59:28.841Z,99953.63
2023-08-08T17:02:00.098Z,99957.53
2023-08-08T17:04:31.009Z,99950.03
2023-08-08T17:07:06.847Z,99956.84
2023-08-08T17:09:37.242Z,99955.38
2023-08-08T17:12:08.254Z,99950.38
2023-08-08T17:14:39.071Z,99960.69
2023-08-08T17:17:09.494Z,99963.97
2023-08-08T17:19:39.931Z,99963.91
2023-08-08T17:22:13.009Z,99963.03
2023-08-08T17:24:43.333Z,99965.47
2023-08-08T17:27:13.743Z,99961.91
2023-08-08T17:29:43.984Z,99968.25
2023-08-08T17:32:17.202Z,99962.56
2023-08-08T17:34:47.632Z,99964.53
2023-08-08T17:37:25.953Z,99974.59
2023-08-08T17:39:56.276Z,99967.56
2023-08-08T17:42:26.543Z,99973.91
2023-08-08T17:44:56.890Z,99968.84
2023-08-08T17:47:27.234Z,99967.28
2023-08-08T17:49:58.903Z,99964.06
2023-08-08T17:52:31.908Z,99972.59
2023-08-08T17:55:22.142Z,99986.84
2023-08-08T17:57:55.158Z,99987.00
2023-08-08T18:00:25.952Z,99978.97
2023-08-08T18:02:57.033Z,99981.28
2023-08-08T18:05:27.693Z,99976.00
2023-08-08T18:08:00.845Z,99984.38
2023-08-08T18:10:32.966Z,99987.13
2023-08-08T18:13:03.276Z,99988.25
2023-08-08T18:15:33.888Z,99982.84
2023-08-08T18:18:06.116Z,99985.09
2023-08-08T18:20:44.298Z,99983.13
2023-08-08T18:23:17.671Z,99992.50
2023-08-08T18:25:48.616Z,100004.75
2023-08-08T18:28:20.516Z,100000.13
2023-08-08T18:30:51.504Z,100009.28
2023-08-08T18:33:22.679Z,100004.66
2023-08-08T18:35:54.603Z,100011.41
2023-08-08T18:38:28.105Z,100010.63
2023-08-08T18:40:58.923Z,100019.34
2023-08-08T18:43:29.943Z,100019.22
2023-08-08T18:46:00.704Z,100016.22
2023-08-08T18:48:31.213Z,100012.25
2023-08-08T18:51:01.587Z,100009.13
2023-08-08T18:53:34.657Z,100009.81
2023-08-08T18:56:05.029Z,100026.69
2023-08-08T18:58:35.509Z,100023.72
2023-08-08T19:01:06.980Z,100018.22
2023-08-08T19:03:37.655Z,100023.41
2023-08-08T19:06:15.462Z,100023.63
2023-08-08T19:08:50.523Z,100018.28
2023-08-08T19:11:21.010Z,100017.78
2023-08-08T19:13:51.501Z,100018.97
2023-08-08T19:16:21.871Z,100020.50
2023-08-08T19:18:52.215Z,100022.00
2023-08-08T19:21:23.306Z,100015.34
2023-08-08T19:23:59.278Z,100023.69
2023-08-08T19:26:30.384Z,100020.03
2023-08-08T19:29:01.880Z,100018.69
2023-08-08T19:31:32.264Z,100015.19
2023-08-08T19:34:07.609Z,100020.97
2023-08-08T19:36:38.284Z,100020.66
2023-08-08T19:39:12.787Z,100025.66
2023-08-08T19:41:48.654Z,100028.81
2023-08-08T19:44:19.112Z,100033.97
2023-08-08T19:46:49.514Z,100030.97
2023-08-08T19:49:22.619Z,100038.81
2023-08-08T19:51:52.942Z,100036.28
2023-08-08T19:54:25.551Z,100044.28
2023-08-08T19:56:55.958Z,100044.59
2023-08-08T19:59:26.268Z,100052.75
2023-08-08T20:01:59.907Z,100051.09
2023-08-08T20:04:37.496Z,100043.41
2023-08-08T20:07:08.187Z,100044.75
2023-08-08T20:09:41.186Z,100057.41
2023-08-08T20:12:11.614Z,100061.72
2023-08-08T20:14:43.103Z,100063.75
2023-08-08T20:17:13.430Z,100057.41
2023-08-08T20:19:43.742Z,100061.09
2023-08-08T20:22:13.740Z,100067.25
2023-08-08T20:24:46.716Z,100062.75
2023-08-08T20:27:17.001Z,100056.59
2023-08-08T20:29:47.435Z,100052.41
2023-08-08T20:32:17.637Z,100059.41
2023-08-08T20:34:47.643Z,100061.41
2023-08-08T20:37:18.739Z,100056.72
2023-08-08T20:39:51.615Z,100060.06
2023-08-08T20:42:22.106Z,100056.03
2023-08-08T20:44:55.983Z,100056.50
2023-08-08T20:47:26.265Z,100055.00
2023-08-08T20:49:56.721Z,100057.66
2023-08-08T20:52:27.086Z,100055.47
2023-08-08T20:55:01.031Z,100056.78
2023-08-08T20:57:31.514Z,100061.59
2023-08-08T21:00:02.438Z,100052.38
2023-08-08T21:02:34.490Z,100055.19
2023-08-08T21:05:04.881Z,100052.50
2023-08-08T21:07:36.893Z,100052.34
2023-08-08T21:10:10.992Z,100056.00
2023-08-08T21:12:41.406Z,100051.81
2023-08-08T21:15:14.148Z,100059.28
2023-08-08T21:17:47.484Z,100060.66
2023-08-08T21:20:17.942Z,100058.59
2023-08-08T21:22:48.294Z,100059.22
2023-08-08T21:25:22.910Z,100062.06
2023-08-08T21:27:53.235Z,100055.22
2023-08-08T21:30:23.227Z,100050.91
2023-08-08T21:32:53.488Z,100048.25
2023-08-08T21:35:23.538Z,100057.53
2023-08-08T21:37:53.883Z,100056.84
2023-08-08T21:40:27.126Z,100053.72
2023-08-08T21:42:57.376Z,100054.19
2023-08-08T21:45:28.017Z,100057.31
2023-08-08T21:47:59.917Z,100056.47
2023-08-08T21:50:30.461Z,100053.66
2023-08-08T21:53:00.895Z,100044.69
2023-08-08T21:55:33.740Z,100046.06
2023-08-08T21:58:07.193Z,100042.72
2023-08-08T22:00:37.759Z,100040.06
2023-08-08T22:03:13.935Z,100048.06
2023-08-08T22:05:46.925Z,100060.38
2023-08-08T22:08:17.318Z,100054.06
2023-08-08T22:10:53.083Z,100053.38
2023-08-08T22:13:23.903Z,100047.59
2023-08-08T22:15:55.221Z,100045.91
2023-08-08T22:18:25.580Z,100043.41
2023-08-08T22:20:53.578Z,100044.25
2023-08-08T22:23:23.972Z,100045.91
2023-08-08T22:25:58.453Z,100047.91
2023-08-08T22:28:28.874Z,100044.00
2023-08-08T22:30:59.642Z,100044.00
2023-08-08T22:33:32.417Z,100045.00
2023-08-08T22:36:04.809Z,100044.63
2023-08-08T22:38:37.530Z,100042.28
2023-08-08T22:41:10.398Z,100032.78
2023-08-08T22:43:40.975Z,100042.25
2023-08-08T22:46:16.313Z,100035.56
2023-08-08T22:48:46.600Z,100032.53
2023-08-08T22:51:23.663Z,100034.19
2023-08-08T22:53:56.374Z,100029.34
2023-08-08T22:56:29.279Z,100028.50
2023-08-08T22:58:59.521Z,100025.47
2023-08-08T23:01:29.566Z,100029.44
2023-08-08T23:03:59.861Z,100023.75
2023-08-08T23:06:30.103Z,100034.84
2023-08-08T23:09:00.389Z,100031.81
2023-08-08T23:11:33.239Z,100032.09
2023-08-08T23:14:03.702Z,100030.75
2023-08-08T23:16:34.011Z,100027.72
2023-08-08T23:19:09.593Z,100027.00
2023-08-08T23:21:42.721Z,100035.28
2023-08-08T23:24:13.373Z,100030.28
2023-08-08T23:26:49.475Z,100034.75
2023-08-08T23:29:19.796Z,100028.06
2023-08-08T23:31:49.876Z,100036.19
2023-08-08T23:34:20.838Z,100034.97
2023-08-08T23:36:51.519Z,100034.13
2023-08-08T23:39:25.904Z,100038.25
2023-08-08T23:42:01.640Z,100036.59
2023-08-08T23:44:31.921Z,100036.88
2023-08-08T23:47:02.465Z,100032.84
2023-08-08T23:49:32.913Z,100030.50
2023-08-08T23:52:02.906Z,100030.50
2023-08-08T23:54:35.416Z,100028.13
2023-08-08T23:57:09.107Z,100023.25
2023-08-08T23:59:42.317Z,100021.75
